sensor_id;sensor_type;location;lat;lon;timestamp;P1;durP1;ratioP1;P2;durP2;ratioP2
15342;SDS011;7771;48.478;8.936;2024-01-11T00:00:50;53.77;;;25.40;;
15342;SDS011;7771;48.478;8.936;2024-01-11T00:03:17;47.83;;;25.07;;
15342;SDS011;7771;48.478;8.936;2024-01-11T00:05:44;50.37;;;26.77;;
15342;SDS011;7771;48.478;8.936;2024-01-11T00:08:12;53.43;;;26.87;;
15342;SDS011;7771;48.478;8.936;2024-01-11T00:10:39;57.40;;;27.37;;
15342;SDS011;7771;48.478;8.936;2024-01-11T00:13:07;49.70;;;24.30;;
15342;SDS011;7771;48.478;8.936;2024-01-11T00:15:35;49.83;;;24.97;;
15342;SDS011;7771;48.478;8.936;2024-01-11T00:18:01;50.13;;;26.03;;
15342;SDS011;7771;48.478;8.936;2024-01-11T00:20:28;53.50;;;24.53;;
15342;SDS011;7771;48.478;8.936;2024-01-11T00:22:55;51.37;;;24.67;;
15342;SDS011;7771;48.478;8.936;2024-01-11T00:25:23;49.57;;;24.33;;
15342;SDS011;7771;48.478;8.936;2024-01-11T00:27:51;45.13;;;23.40;;
15342;SDS011;7771;48.478;8.936;2024-01-11T00:30:17;48.23;;;25.07;;
15342;SDS011;7771;48.478;8.936;2024-01-11T00:32:43;45.77;;;24.13;;
15342;SDS011;7771;48.478;8.936;2024-01-11T00:35:11;40.53;;;23.60;;
15342;SDS011;7771;48.478;8.936;2024-01-11T00:37:37;42.80;;;22.83;;
15342;SDS011;7771;48.478;8.936;2024-01-11T00:40:06;47.33;;;25.47;;
15342;SDS011;7771;48.478;8.936;2024-01-11T00:42:33;49.20;;;25.23;;
15342;SDS011;7771;48.478;8.936;2024-01-11T00:45:00;63.93;;;26.67;;
15342;SDS011;7771;48.478;8.936;2024-01-11T00:47:27;54.53;;;26.40;;
15342;SDS011;7771;48.478;8.936;2024-01-11T00:49:54;61.73;;;26.47;;
15342;SDS011;7771;48.478;8.936;2024-01-11T00:52:22;51.60;;;24.43;;
15342;SDS011;7771;48.478;8.936;2024-01-11T00:54:49;45.83;;;24.53;;
15342;SDS011;7771;48.478;8.936;2024-01-11T00:57:18;49.50;;;24.87;;
15342;SDS011;7771;48.478;8.936;2024-01-11T00:59:44;55.00;;;25.20;;
15342;SDS011;7771;48.478;8.936;2024-01-11T01:02:12;53.00;;;25.50;;
15342;SDS011;7771;48.478;8.936;2024-01-11T01:04:38;48.03;;;24.63;;
15342;SDS011;7771;48.478;8.936;2024-01-11T01:07:06;57.53;;;24.90;;
15342;SDS011;7771;48.478;8.936;2024-01-11T01:09:32;51.37;;;25.33;;
15342;SDS011;7771;48.478;8.936;2024-01-11T01:12:00;51.70;;;24.27;;
15342;SDS011;7771;48.478;8.936;2024-01-11T01:14:28;53.47;;;26.53;;
15342;SDS011;7771;48.478;8.936;2024-01-11T01:16:54;49.90;;;24.90;;
15342;SDS011;7771;48.478;8.936;2024-01-11T01:19:22;52.83;;;25.63;;
15342;SDS011;7771;48.478;8.936;2024-01-11T01:21:49;46.87;;;24.00;;
15342;SDS011;7771;48.478;8.936;2024-01-11T01:24:16;52.93;;;24.47;;
15342;SDS011;7771;48.478;8.936;2024-01-11T01:26:44;44.77;;;25.10;;
15342;SDS011;7771;48.478;8.936;2024-01-11T01:29:11;49.93;;;25.07;;
15342;SDS011;7771;48.478;8.936;2024-01-11T01:31:39;54.53;;;24.70;;
15342;SDS011;7771;48.478;8.936;2024-01-11T01:34:06;50.50;;;25.10;;
15342;SDS011;7771;48.478;8.936;2024-01-11T01:36:33;52.70;;;24.00;;
15342;SDS011;7771;48.478;8.936;2024-01-11T01:39:01;53.87;;;24.40;;
15342;SDS011;7771;48.478;8.936;2024-01-11T01:41:29;44.97;;;22.63;;
15342;SDS011;7771;48.478;8.936;2024-01-11T01:43:55;46.80;;;22.93;;
15342;SDS011;7771;48.478;8.936;2024-01-11T01:46:23;46.00;;;24.10;;
15342;SDS011;7771;48.478;8.936;2024-01-11T01:48:50;58.77;;;27.23;;
15342;SDS011;7771;48.478;8.936;2024-01-11T01:51:17;52.00;;;26.30;;
15342;SDS011;7771;48.478;8.936;2024-01-11T01:53:45;54.17;;;25.20;;
15342;SDS011;7771;48.478;8.936;2024-01-11T01:56:11;49.80;;;23.63;;
15342;SDS011;7771;48.478;8.936;2024-01-11T01:58:39;48.93;;;25.20;;
15342;SDS011;7771;48.478;8.936;2024-01-11T02:01:06;43.90;;;23.33;;
15342;SDS011;7771;48.478;8.936;2024-01-11T02:03:34;48.23;;;23.13;;
15342;SDS011;7771;48.478;8.936;2024-01-11T02:06:02;50.67;;;23.07;;
15342;SDS011;7771;48.478;8.936;2024-01-11T02:08:30;42.60;;;22.53;;
15342;SDS011;7771;48.478;8.936;2024-01-11T02:10:56;45.53;;;23.70;;
15342;SDS011;7771;48.478;8.936;2024-01-11T02:13:23;51.00;;;23.83;;
15342;SDS011;7771;48.478;8.936;2024-01-11T02:15:50;53.10;;;26.03;;
15342;SDS011;7771;48.478;8.936;2024-01-11T02:18:18;48.83;;;24.97;;
15342;SDS011;7771;48.478;8.936;2024-01-11T02:20:45;51.27;;;25.13;;
15342;SDS011;7771;48.478;8.936;2024-01-11T02:23:17;51.20;;;25.33;;
15342;SDS011;7771;48.478;8.936;2024-01-11T02:25:39;47.67;;;24.03;;
15342;SDS011;7771;48.478;8.936;2024-01-11T02:28:06;50.17;;;26.20;;
15342;SDS011;7771;48.478;8.936;2024-01-11T02:30:32;50.37;;;24.93;;
15342;SDS011;7771;48.478;8.936;2024-01-11T02:33:00;53.60;;;25.97;;
15342;SDS011;7771;48.478;8.936;2024-01-11T02:35:27;51.30;;;24.70;;
15342;SDS011;7771;48.478;8.936;2024-01-11T02:37:54;53.53;;;26.70;;
15342;SDS011;7771;48.478;8.936;2024-01-11T02:40:20;54.27;;;25.23;;
15342;SDS011;7771;48.478;8.936;2024-01-11T02:42:48;50.37;;;23.60;;
15342;SDS011;7771;48.478;8.936;2024-01-11T02:45:14;44.90;;;23.07;;
15342;SDS011;7771;48.478;8.936;2024-01-11T02:47:41;45.90;;;23.17;;
15342;SDS011;7771;48.478;8.936;2024-01-11T02:50:09;53.17;;;26.07;;
15342;SDS011;7771;48.478;8.936;2024-01-11T02:52:36;47.23;;;22.73;;
15342;SDS011;7771;48.478;8.936;2024-01-11T02:55:03;49.27;;;24.27;;
15342;SDS011;7771;48.478;8.936;2024-01-11T02:57:30;44.77;;;24.07;;
15342;SDS011;7771;48.478;8.936;2024-01-11T02:59:58;50.67;;;24.30;;
15342;SDS011;7771;48.478;8.936;2024-01-11T03:02:25;47.63;;;22.93;;
15342;SDS011;7771;48.478;8.936;2024-01-11T03:04:52;47.07;;;23.23;;
15342;SDS011;7771;48.478;8.936;2024-01-11T03:07:19;50.17;;;22.97;;
15342;SDS011;7771;48.478;8.936;2024-01-11T03:09:46;44.40;;;21.60;;
15342;SDS011;7771;48.478;8.936;2024-01-11T03:12:13;44.57;;;22.07;;
15342;SDS011;7771;48.478;8.936;2024-01-11T03:14:41;42.73;;;21.87;;
15342;SDS011;7771;48.478;8.936;2024-01-11T03:17:07;45.57;;;24.33;;
15342;SDS011;7771;48.478;8.936;2024-01-11T03:19:38;46.83;;;24.10;;
15342;SDS011;7771;48.478;8.936;2024-01-11T03:22:01;44.53;;;23.67;;
15342;SDS011;7771;48.478;8.936;2024-01-11T03:24:29;50.50;;;25.03;;
15342;SDS011;7771;48.478;8.936;2024-01-11T03:26:57;44.13;;;23.10;;
15342;SDS011;7771;48.478;8.936;2024-01-11T03:29:24;48.20;;;24.57;;
15342;SDS011;7771;48.478;8.936;2024-01-11T03:31:50;43.97;;;24.00;;
15342;SDS011;7771;48.478;8.936;2024-01-11T03:34:17;43.13;;;23.27;;
15342;SDS011;7771;48.478;8.936;2024-01-11T03:36:45;41.90;;;22.07;;
15342;SDS011;7771;48.478;8.936;2024-01-11T03:39:12;45.30;;;22.80;;
15342;SDS011;7771;48.478;8.936;2024-01-11T03:41:43;44.57;;;22.93;;
15342;SDS011;7771;48.478;8.936;2024-01-11T03:44:12;46.57;;;23.80;;
15342;SDS011;7771;48.478;8.936;2024-01-11T03:46:38;44.87;;;22.93;;
15342;SDS011;7771;48.478;8.936;2024-01-11T03:49:06;46.47;;;22.83;;
15342;SDS011;7771;48.478;8.936;2024-01-11T03:51:34;44.33;;;22.53;;
15342;SDS011;7771;48.478;8.936;2024-01-11T03:54:00;49.20;;;22.47;;
15342;SDS011;7771;48.478;8.936;2024-01-11T03:56:28;46.63;;;24.00;;
15342;SDS011;7771;48.478;8.936;2024-01-11T03:58:55;42.67;;;22.10;;
15342;SDS011;7771;48.478;8.936;2024-01-11T04:01:22;44.30;;;23.43;;
15342;SDS011;7771;48.478;8.936;2024-01-11T04:03:49;41.20;;;22.13;;
15342;SDS011;7771;48.478;8.936;2024-01-11T04:06:19;39.93;;;20.27;;
15342;SDS011;7771;48.478;8.936;2024-01-11T04:08:45;40.73;;;21.77;;
15342;SDS011;7771;48.478;8.936;2024-01-11T04:11:12;48.03;;;21.50;;
15342;SDS011;7771;48.478;8.936;2024-01-11T04:13:40;43.90;;;20.97;;
15342;SDS011;7771;48.478;8.936;2024-01-11T04:16:07;38.73;;;21.07;;
15342;SDS011;7771;48.478;8.936;2024-01-11T04:18:34;43.00;;;22.07;;
15342;SDS011;7771;48.478;8.936;2024-01-11T04:21:01;42.90;;;20.90;;
15342;SDS011;7771;48.478;8.936;2024-01-11T04:23:27;46.90;;;22.23;;
15342;SDS011;7771;48.478;8.936;2024-01-11T04:25:54;40.23;;;22.07;;
15342;SDS011;7771;48.478;8.936;2024-01-11T04:28:21;47.67;;;23.67;;
15342;SDS011;7771;48.478;8.936;2024-01-11T04:30:50;40.23;;;21.27;;
15342;SDS011;7771;48.478;8.936;2024-01-11T04:33:17;40.23;;;20.63;;
15342;SDS011;7771;48.478;8.936;2024-01-11T04:35:43;43.63;;;22.57;;
15342;SDS011;7771;48.478;8.936;2024-01-11T04:38:11;36.67;;;20.47;;
15342;SDS011;7771;48.478;8.936;2024-01-11T04:40:37;45.63;;;21.90;;
15342;SDS011;7771;48.478;8.936;2024-01-11T04:43:05;38.90;;;21.37;;
15342;SDS011;7771;48.478;8.936;2024-01-11T04:45:31;44.40;;;22.03;;
15342;SDS011;7771;48.478;8.936;2024-01-11T04:47:58;43.17;;;20.77;;
15342;SDS011;7771;48.478;8.936;2024-01-11T04:50:25;45.17;;;23.73;;
15342;SDS011;7771;48.478;8.936;2024-01-11T04:52:53;44.40;;;23.10;;
15342;SDS011;7771;48.478;8.936;2024-01-11T04:55:21;45.87;;;23.10;;
15342;SDS011;7771;48.478;8.936;2024-01-11T04:57:48;45.53;;;23.03;;
15342;SDS011;7771;48.478;8.936;2024-01-11T05:00:15;46.00;;;22.80;;
15342;SDS011;7771;48.478;8.936;2024-01-11T05:02:42;45.70;;;21.73;;
15342;SDS011;7771;48.478;8.936;2024-01-11T05:05:11;42.40;;;22.03;;
15342;SDS011;7771;48.478;8.936;2024-01-11T05:07:38;35.07;;;19.03;;
15342;SDS011;7771;48.478;8.936;2024-01-11T05:10:05;39.67;;;21.37;;
15342;SDS011;7771;48.478;8.936;2024-01-11T05:12:32;40.33;;;21.67;;
15342;SDS011;7771;48.478;8.936;2024-01-11T05:15:00;45.53;;;21.23;;
15342;SDS011;7771;48.478;8.936;2024-01-11T05:17:28;46.23;;;22.30;;
15342;SDS011;7771;48.478;8.936;2024-01-11T05:19:54;42.37;;;22.30;;
15342;SDS011;7771;48.478;8.936;2024-01-11T05:22:22;45.47;;;22.67;;
15342;SDS011;7771;48.478;8.936;2024-01-11T05:24:48;49.97;;;23.43;;
15342;SDS011;7771;48.478;8.936;2024-01-11T05:27:15;45.70;;;23.20;;
15342;SDS011;7771;48.478;8.936;2024-01-11T05:29:42;50.50;;;23.70;;
15342;SDS011;7771;48.478;8.936;2024-01-11T05:32:09;50.03;;;23.00;;
15342;SDS011;7771;48.478;8.936;2024-01-11T05:34:36;46.33;;;23.67;;
15342;SDS011;7771;48.478;8.936;2024-01-11T05:37:04;48.17;;;25.20;;
15342;SDS011;7771;48.478;8.936;2024-01-11T05:39:32;47.03;;;24.90;;
15342;SDS011;7771;48.478;8.936;2024-01-11T05:41:59;53.70;;;24.80;;
15342;SDS011;7771;48.478;8.936;2024-01-11T05:44:26;51.20;;;25.30;;
15342;SDS011;7771;48.478;8.936;2024-01-11T05:46:53;50.00;;;25.17;;
15342;SDS011;7771;48.478;8.936;2024-01-11T05:49:20;48.50;;;23.57;;
15342;SDS011;7771;48.478;8.936;2024-01-11T05:51:47;44.50;;;23.20;;
15342;SDS011;7771;48.478;8.936;2024-01-11T05:54:15;47.13;;;24.93;;
15342;SDS011;7771;48.478;8.936;2024-01-11T05:56:41;40.30;;;22.27;;
15342;SDS011;7771;48.478;8.936;2024-01-11T05:59:09;41.17;;;21.40;;
15342;SDS011;7771;48.478;8.936;2024-01-11T06:01:40;45.97;;;22.60;;
15342;SDS011;7771;48.478;8.936;2024-01-11T06:04:09;40.00;;;21.67;;
15342;SDS011;7771;48.478;8.936;2024-01-11T06:06:38;43.10;;;21.10;;
15342;SDS011;7771;48.478;8.936;2024-01-11T06:09:06;42.57;;;21.73;;
15342;SDS011;7771;48.478;8.936;2024-01-11T06:11:34;47.37;;;22.20;;
15342;SDS011;7771;48.478;8.936;2024-01-11T06:14:02;49.90;;;26.50;;
15342;SDS011;7771;48.478;8.936;2024-01-11T06:16:30;48.03;;;24.07;;
15342;SDS011;7771;48.478;8.936;2024-01-11T06:18:58;43.17;;;21.20;;
15342;SDS011;7771;48.478;8.936;2024-01-11T06:21:26;41.17;;;22.07;;
15342;SDS011;7771;48.478;8.936;2024-01-11T06:23:52;44.00;;;24.93;;
15342;SDS011;7771;48.478;8.936;2024-01-11T06:26:20;53.60;;;25.13;;
15342;SDS011;7771;48.478;8.936;2024-01-11T06:28:49;50.40;;;23.33;;
15342;SDS011;7771;48.478;8.936;2024-01-11T06:31:16;46.20;;;24.47;;
15342;SDS011;7771;48.478;8.936;2024-01-11T06:33:44;45.73;;;22.23;;
15342;SDS011;7771;48.478;8.936;2024-01-11T06:36:12;45.27;;;23.40;;
15342;SDS011;7771;48.478;8.936;2024-01-11T06:38:40;43.87;;;23.70;;
15342;SDS011;7771;48.478;8.936;2024-01-11T06:41:08;42.60;;;21.77;;
15342;SDS011;7771;48.478;8.936;2024-01-11T06:43:36;44.67;;;22.17;;
15342;SDS011;7771;48.478;8.936;2024-01-11T06:46:03;45.70;;;23.30;;
15342;SDS011;7771;48.478;8.936;2024-01-11T06:48:30;47.27;;;22.67;;
15342;SDS011;7771;48.478;8.936;2024-01-11T06:50:58;47.13;;;23.23;;
15342;SDS011;7771;48.478;8.936;2024-01-11T06:53:26;51.67;;;24.13;;
15342;SDS011;7771;48.478;8.936;2024-01-11T06:55:54;46.97;;;24.77;;
15342;SDS011;7771;48.478;8.936;2024-01-11T06:58:21;49.87;;;24.33;;
15342;SDS011;7771;48.478;8.936;2024-01-11T07:00:49;46.30;;;24.67;;
15342;SDS011;7771;48.478;8.936;2024-01-11T07:03:16;54.67;;;27.17;;
15342;SDS011;7771;48.478;8.936;2024-01-11T07:05:43;47.33;;;24.83;;
15342;SDS011;7771;48.478;8.936;2024-01-11T07:08:11;56.03;;;27.40;;
15342;SDS011;7771;48.478;8.936;2024-01-11T07:10:38;51.50;;;25.03;;
15342;SDS011;7771;48.478;8.936;2024-01-11T07:13:05;53.70;;;27.73;;
15342;SDS011;7771;48.478;8.936;2024-01-11T07:15:33;51.10;;;24.77;;
15342;SDS011;7771;48.478;8.936;2024-01-11T07:18:01;47.53;;;25.17;;
15342;SDS011;7771;48.478;8.936;2024-01-11T07:20:27;45.97;;;23.83;;
15342;SDS011;7771;48.478;8.936;2024-01-11T07:22:55;49.87;;;25.63;;
15342;SDS011;7771;48.478;8.936;2024-01-11T07:25:23;47.53;;;24.63;;
15342;SDS011;7771;48.478;8.936;2024-01-11T07:27:50;52.33;;;25.27;;
15342;SDS011;7771;48.478;8.936;2024-01-11T07:30:17;49.87;;;26.47;;
15342;SDS011;7771;48.478;8.936;2024-01-11T07:32:44;51.83;;;25.90;;
15342;SDS011;7771;48.478;8.936;2024-01-11T07:35:11;48.87;;;25.90;;
15342;SDS011;7771;48.478;8.936;2024-01-11T07:37:39;49.57;;;23.60;;
15342;SDS011;7771;48.478;8.936;2024-01-11T07:40:06;45.93;;;22.67;;
15342;SDS011;7771;48.478;8.936;2024-01-11T07:42:37;42.50;;;22.40;;
15342;SDS011;7771;48.478;8.936;2024-01-11T07:45:03;41.10;;;22.73;;
15342;SDS011;7771;48.478;8.936;2024-01-11T07:47:31;44.73;;;23.30;;
15342;SDS011;7771;48.478;8.936;2024-01-11T07:49:59;46.67;;;23.23;;
15342;SDS011;7771;48.478;8.936;2024-01-11T07:52:25;44.57;;;23.43;;
15342;SDS011;7771;48.478;8.936;2024-01-11T07:54:54;46.00;;;23.63;;
15342;SDS011;7771;48.478;8.936;2024-01-11T07:57:20;41.17;;;22.03;;
15342;SDS011;7771;48.478;8.936;2024-01-11T07:59:48;48.23;;;24.43;;
15342;SDS011;7771;48.478;8.936;2024-01-11T08:02:16;47.87;;;24.73;;
15342;SDS011;7771;48.478;8.936;2024-01-11T08:04:42;49.33;;;24.80;;
15342;SDS011;7771;48.478;8.936;2024-01-11T08:07:10;53.73;;;26.33;;
15342;SDS011;7771;48.478;8.936;2024-01-11T08:09:37;56.50;;;27.80;;
15342;SDS011;7771;48.478;8.936;2024-01-11T08:12:05;56.70;;;26.77;;
15342;SDS011;7771;48.478;8.936;2024-01-11T08:14:32;62.23;;;27.07;;
15342;SDS011;7771;48.478;8.936;2024-01-11T08:17:01;47.57;;;23.93;;
15342;SDS011;7771;48.478;8.936;2024-01-11T08:19:27;45.40;;;21.83;;
15342;SDS011;7771;48.478;8.936;2024-01-11T08:21:54;46.07;;;23.83;;
15342;SDS011;7771;48.478;8.936;2024-01-11T08:24:21;47.17;;;23.33;;
15342;SDS011;7771;48.478;8.936;2024-01-11T08:26:49;49.67;;;24.63;;
15342;SDS011;7771;48.478;8.936;2024-01-11T08:29:15;47.43;;;24.13;;
15342;SDS011;7771;48.478;8.936;2024-01-11T08:31:44;51.83;;;24.77;;
15342;SDS011;7771;48.478;8.936;2024-01-11T08:34:11;50.73;;;24.83;;
15342;SDS011;7771;48.478;8.936;2024-01-11T08:36:37;45.47;;;25.60;;
15342;SDS011;7771;48.478;8.936;2024-01-11T08:39:05;51.67;;;26.13;;
15342;SDS011;7771;48.478;8.936;2024-01-11T08:41:32;50.03;;;25.20;;
15342;SDS011;7771;48.478;8.936;2024-01-11T08:43:59;48.47;;;24.37;;
15342;SDS011;7771;48.478;8.936;2024-01-11T08:46:28;55.67;;;23.73;;
15342;SDS011;7771;48.478;8.936;2024-01-11T08:48:54;45.33;;;24.70;;
15342;SDS011;7771;48.478;8.936;2024-01-11T08:51:21;49.13;;;24.77;;
15342;SDS011;7771;48.478;8.936;2024-01-11T08:53:48;47.70;;;24.70;;
15342;SDS011;7771;48.478;8.936;2024-01-11T08:56:16;51.57;;;25.70;;
15342;SDS011;7771;48.478;8.936;2024-01-11T08:58:42;50.43;;;23.77;;
15342;SDS011;7771;48.478;8.936;2024-01-11T09:01:09;51.17;;;26.90;;
15342;SDS011;7771;48.478;8.936;2024-01-11T09:03:36;46.93;;;24.10;;
15342;SDS011;7771;48.478;8.936;2024-01-11T09:06:04;47.77;;;25.50;;
15342;SDS011;7771;48.478;8.936;2024-01-11T09:08:33;50.47;;;25.53;;
15342;SDS011;7771;48.478;8.936;2024-01-11T09:11:00;55.00;;;28.40;;
15342;SDS011;7771;48.478;8.936;2024-01-11T09:13:28;50.93;;;25.47;;
15342;SDS011;7771;48.478;8.936;2024-01-11T09:15:56;52.57;;;28.87;;
15342;SDS011;7771;48.478;8.936;2024-01-11T09:18:22;60.30;;;30.13;;
15342;SDS011;7771;48.478;8.936;2024-01-11T09:20:50;59.63;;;27.87;;
15342;SDS011;7771;48.478;8.936;2024-01-11T09:23:17;59.93;;;28.67;;
15342;SDS011;7771;48.478;8.936;2024-01-11T09:25:45;57.00;;;28.17;;
15342;SDS011;7771;48.478;8.936;2024-01-11T09:28:13;50.20;;;27.70;;
15342;SDS011;7771;48.478;8.936;2024-01-11T09:30:40;46.53;;;26.87;;
15342;SDS011;7771;48.478;8.936;2024-01-11T09:33:08;52.80;;;27.03;;
15342;SDS011;7771;48.478;8.936;2024-01-11T09:38:13;52.63;;;28.17;;
15342;SDS011;7771;48.478;8.936;2024-01-11T09:40:41;47.80;;;27.23;;
15342;SDS011;7771;48.478;8.936;2024-01-11T09:43:07;54.53;;;29.17;;
15342;SDS011;7771;48.478;8.936;2024-01-11T09:45:35;55.93;;;27.23;;
15342;SDS011;7771;48.478;8.936;2024-01-11T09:48:04;54.37;;;28.73;;
15342;SDS011;7771;48.478;8.936;2024-01-11T09:50:31;52.40;;;27.00;;
15342;SDS011;7771;48.478;8.936;2024-01-11T09:52:59;55.00;;;28.70;;
15342;SDS011;7771;48.478;8.936;2024-01-11T09:55:27;51.73;;;27.73;;
15342;SDS011;7771;48.478;8.936;2024-01-11T09:57:56;56.40;;;27.47;;
15342;SDS011;7771;48.478;8.936;2024-01-11T10:00:22;50.43;;;27.03;;
15342;SDS011;7771;48.478;8.936;2024-01-11T10:02:49;54.40;;;26.47;;
15342;SDS011;7771;48.478;8.936;2024-01-11T10:05:16;55.93;;;28.77;;
15342;SDS011;7771;48.478;8.936;2024-01-11T10:07:43;65.47;;;35.73;;
15342;SDS011;7771;48.478;8.936;2024-01-11T10:10:12;61.13;;;32.50;;
15342;SDS011;7771;48.478;8.936;2024-01-11T10:12:38;61.30;;;28.27;;
15342;SDS011;7771;48.478;8.936;2024-01-11T10:15:07;51.97;;;28.57;;
15342;SDS011;7771;48.478;8.936;2024-01-11T10:17:40;62.50;;;29.57;;
15342;SDS011;7771;48.478;8.936;2024-01-11T10:20:08;53.03;;;29.10;;
15342;SDS011;7771;48.478;8.936;2024-01-11T10:22:36;63.30;;;29.20;;
15342;SDS011;7771;48.478;8.936;2024-01-11T10:25:09;56.57;;;27.93;;
15342;SDS011;7771;48.478;8.936;2024-01-11T10:27:36;62.03;;;29.10;;
15342;SDS011;7771;48.478;8.936;2024-01-11T10:30:05;56.53;;;28.70;;
15342;SDS011;7771;48.478;8.936;2024-01-11T10:32:34;56.00;;;30.27;;
15342;SDS011;7771;48.478;8.936;2024-01-11T10:35:01;54.17;;;28.50;;
15342;SDS011;7771;48.478;8.936;2024-01-11T10:37:31;57.67;;;30.57;;
15342;SDS011;7771;48.478;8.936;2024-01-11T10:39:58;56.97;;;29.53;;
15342;SDS011;7771;48.478;8.936;2024-01-11T10:42:26;65.73;;;33.20;;
15342;SDS011;7771;48.478;8.936;2024-01-11T10:44:54;61.20;;;30.60;;
15342;SDS011;7771;48.478;8.936;2024-01-11T10:47:21;69.73;;;31.23;;
15342;SDS011;7771;48.478;8.936;2024-01-11T10:49:48;56.97;;;29.87;;
15342;SDS011;7771;48.478;8.936;2024-01-11T10:52:15;65.60;;;31.40;;
15342;SDS011;7771;48.478;8.936;2024-01-11T10:54:41;64.63;;;32.27;;
15342;SDS011;7771;48.478;8.936;2024-01-11T10:57:08;57.47;;;30.80;;
15342;SDS011;7771;48.478;8.936;2024-01-11T10:59:35;65.20;;;32.30;;
15342;SDS011;7771;48.478;8.936;2024-01-11T11:02:04;61.53;;;31.63;;
15342;SDS011;7771;48.478;8.936;2024-01-11T11:04:31;59.00;;;31.13;;
15342;SDS011;7771;48.478;8.936;2024-01-11T11:06:57;61.70;;;31.93;;
15342;SDS011;7771;48.478;8.936;2024-01-11T11:09:25;53.47;;;28.60;;
15342;SDS011;7771;48.478;8.936;2024-01-11T11:11:53;61.57;;;31.33;;
15342;SDS011;7771;48.478;8.936;2024-01-11T11:14:21;57.57;;;32.23;;
15342;SDS011;7771;48.478;8.936;2024-01-11T11:16:49;55.53;;;30.73;;
15342;SDS011;7771;48.478;8.936;2024-01-11T11:19:16;54.73;;;29.13;;
15342;SDS011;7771;48.478;8.936;2024-01-11T11:21:43;59.70;;;30.57;;
15342;SDS011;7771;48.478;8.936;2024-01-11T11:24:12;62.77;;;32.23;;
15342;SDS011;7771;48.478;8.936;2024-01-11T11:26:38;62.43;;;31.70;;
15342;SDS011;7771;48.478;8.936;2024-01-11T11:29:05;59.77;;;31.43;;
15342;SDS011;7771;48.478;8.936;2024-01-11T11:31:42;53.10;;;29.47;;
15342;SDS011;7771;48.478;8.936;2024-01-11T11:34:11;54.10;;;29.37;;
15342;SDS011;7771;48.478;8.936;2024-01-11T11:36:39;57.03;;;30.30;;
15342;SDS011;7771;48.478;8.936;2024-01-11T11:39:05;56.83;;;31.30;;
15342;SDS011;7771;48.478;8.936;2024-01-11T11:41:34;58.40;;;31.00;;
15342;SDS011;7771;48.478;8.936;2024-01-11T11:44:01;57.70;;;30.23;;
15342;SDS011;7771;48.478;8.936;2024-01-11T11:46:28;56.43;;;31.43;;
15342;SDS011;7771;48.478;8.936;2024-01-11T11:48:56;54.37;;;31.27;;
15342;SDS011;7771;48.478;8.936;2024-01-11T11:51:24;56.77;;;30.27;;
15342;SDS011;7771;48.478;8.936;2024-01-11T11:53:52;59.17;;;30.90;;
15342;SDS011;7771;48.478;8.936;2024-01-11T11:56:19;55.80;;;31.03;;
15342;SDS011;7771;48.478;8.936;2024-01-11T11:58:46;54.97;;;30.77;;
15342;SDS011;7771;48.478;8.936;2024-01-11T12:01:14;57.70;;;29.83;;
15342;SDS011;7771;48.478;8.936;2024-01-11T12:03:41;56.30;;;31.60;;
15342;SDS011;7771;48.478;8.936;2024-01-11T12:06:09;61.37;;;31.47;;
15342;SDS011;7771;48.478;8.936;2024-01-11T12:08:37;50.30;;;30.13;;
15342;SDS011;7771;48.478;8.936;2024-01-11T12:11:04;53.33;;;28.33;;
15342;SDS011;7771;48.478;8.936;2024-01-11T12:13:31;57.37;;;29.63;;
15342;SDS011;7771;48.478;8.936;2024-01-11T12:16:00;52.67;;;29.80;;
15342;SDS011;7771;48.478;8.936;2024-01-11T12:18:27;52.97;;;29.80;;
15342;SDS011;7771;48.478;8.936;2024-01-11T12:20:54;56.53;;;30.67;;
15342;SDS011;7771;48.478;8.936;2024-01-11T12:23:21;54.50;;;29.37;;
15342;SDS011;7771;48.478;8.936;2024-01-11T12:25:49;51.67;;;29.60;;
15342;SDS011;7771;48.478;8.936;2024-01-11T12:28:15;59.43;;;30.47;;
15342;SDS011;7771;48.478;8.936;2024-01-11T12:30:43;50.67;;;29.57;;
15342;SDS011;7771;48.478;8.936;2024-01-11T12:33:11;56.73;;;30.47;;
15342;SDS011;7771;48.478;8.936;2024-01-11T12:35:37;53.43;;;28.43;;
15342;SDS011;7771;48.478;8.936;2024-01-11T12:38:05;54.93;;;29.37;;
15342;SDS011;7771;48.478;8.936;2024-01-11T12:40:34;53.33;;;29.93;;
15342;SDS011;7771;48.478;8.936;2024-01-11T12:43:01;51.30;;;29.13;;
15342;SDS011;7771;48.478;8.936;2024-01-11T12:45:28;54.53;;;30.50;;
15342;SDS011;7771;48.478;8.936;2024-01-11T12:47:55;55.67;;;28.93;;
15342;SDS011;7771;48.478;8.936;2024-01-11T12:50:23;59.97;;;29.67;;
15342;SDS011;7771;48.478;8.936;2024-01-11T12:55:29;58.67;;;31.37;;
15342;SDS011;7771;48.478;8.936;2024-01-11T12:58:04;58.40;;;31.97;;
15342;SDS011;7771;48.478;8.936;2024-01-11T13:00:31;60.27;;;30.20;;
15342;SDS011;7771;48.478;8.936;2024-01-11T13:02:59;60.73;;;31.57;;
15342;SDS011;7771;48.478;8.936;2024-01-11T13:05:26;54.90;;;31.37;;
15342;SDS011;7771;48.478;8.936;2024-01-11T13:07:52;52.67;;;29.13;;
15342;SDS011;7771;48.478;8.936;2024-01-11T13:10:19;53.77;;;30.60;;
15342;SDS011;7771;48.478;8.936;2024-01-11T13:12:47;59.63;;;31.37;;
15342;SDS011;7771;48.478;8.936;2024-01-11T13:15:14;55.70;;;30.07;;
15342;SDS011;7771;48.478;8.936;2024-01-11T13:17:41;58.87;;;29.90;;
15342;SDS011;7771;48.478;8.936;2024-01-11T13:20:09;57.03;;;30.63;;
15342;SDS011;7771;48.478;8.936;2024-01-11T13:22:36;62.20;;;32.43;;
15342;SDS011;7771;48.478;8.936;2024-01-11T13:25:04;58.67;;;31.50;;
15342;SDS011;7771;48.478;8.936;2024-01-11T13:27:31;55.60;;;31.33;;
15342;SDS011;7771;48.478;8.936;2024-01-11T13:29:59;61.63;;;31.73;;
15342;SDS011;7771;48.478;8.936;2024-01-11T13:32:26;53.97;;;30.03;;
15342;SDS011;7771;48.478;8.936;2024-01-11T13:34:53;60.37;;;31.23;;
15342;SDS011;7771;48.478;8.936;2024-01-11T13:37:21;56.03;;;30.40;;
15342;SDS011;7771;48.478;8.936;2024-01-11T13:39:47;61.13;;;32.00;;
15342;SDS011;7771;48.478;8.936;2024-01-11T13:42:15;57.97;;;30.97;;
15342;SDS011;7771;48.478;8.936;2024-01-11T13:44:41;53.27;;;31.53;;
15342;SDS011;7771;48.478;8.936;2024-01-11T13:47:09;55.13;;;31.10;;
15342;SDS011;7771;48.478;8.936;2024-01-11T13:49:36;57.50;;;30.90;;
15342;SDS011;7771;48.478;8.936;2024-01-11T13:52:04;57.43;;;30.40;;
15342;SDS011;7771;48.478;8.936;2024-01-11T13:54:31;55.63;;;31.23;;
15342;SDS011;7771;48.478;8.936;2024-01-11T13:56:59;53.90;;;30.77;;
15342;SDS011;7771;48.478;8.936;2024-01-11T13:59:27;59.83;;;30.97;;
15342;SDS011;7771;48.478;8.936;2024-01-11T14:01:54;60.57;;;31.77;;
15342;SDS011;7771;48.478;8.936;2024-01-11T14:04:21;62.90;;;31.07;;
15342;SDS011;7771;48.478;8.936;2024-01-11T14:06:48;62.57;;;32.67;;
15342;SDS011;7771;48.478;8.936;2024-01-11T14:09:16;58.30;;;32.10;;
15342;SDS011;7771;48.478;8.936;2024-01-11T14:11:44;61.60;;;32.70;;
15342;SDS011;7771;48.478;8.936;2024-01-11T14:14:12;61.83;;;32.03;;
15342;SDS011;7771;48.478;8.936;2024-01-11T14:16:39;59.70;;;31.80;;
15342;SDS011;7771;48.478;8.936;2024-01-11T14:19:07;57.03;;;33.33;;
15342;SDS011;7771;48.478;8.936;2024-01-11T14:21:34;59.63;;;30.70;;
15342;SDS011;7771;48.478;8.936;2024-01-11T14:24:03;59.73;;;32.47;;
15342;SDS011;7771;48.478;8.936;2024-01-11T14:26:31;63.63;;;31.17;;
15342;SDS011;7771;48.478;8.936;2024-01-11T14:28:58;62.90;;;33.57;;
15342;SDS011;7771;48.478;8.936;2024-01-11T14:31:25;62.03;;;33.90;;
15342;SDS011;7771;48.478;8.936;2024-01-11T14:33:52;72.23;;;36.00;;
15342;SDS011;7771;48.478;8.936;2024-01-11T14:36:20;72.03;;;38.37;;
15342;SDS011;7771;48.478;8.936;2024-01-11T14:38:48;76.83;;;39.03;;